Main page
METAR-TAF:

METAR-TAF

Airports :

Córdoba, Argentina

Ingeniero Aeronáutico Ambrosio L.V. Taravella International Airport

latitude: 31-19S, longitude: 064-13W, elevation: 484 m

Current weather observation

The report was made 1 hour and 4 minutes ago, at 13:00 UTC
Wind 16 kt from the South
Temperature 18°C
Humidity 30%
Pressure 1021 hPa
Visibility 10 km or more
Scattered clouds at a height of 3400 ft

METAR: SACO 211300Z 19016KT 9999 SCT034 18/00 Q1021

Time: 11:04 (14:04 UTC)

Forecast

The report was made 3 hours and 4 minutes ago, at 11:00 UTC
Forecast valid from 21 at 12 UTC to 22 at 12 UTC
Wind 15 kt from the South
Visibility 10 km or more
Broken clouds at a height of 3000 ft
Few clouds at a height of 4000 ft, Cumulonimbus.
thunderstorm in vicinity
Becoming
from 21 at 15 UTC to 21 at 18 UTC
Wind 15 kt from the South
Visibility 10 km or more
no clouds below 1500 m and no cumulonimbus

TAF: SACO 211100Z 2112/2212 18015KT 9999 VCTS BKN030 FEW040CB TX22/2119Z TN10/2210Z BECMG 2115/2118 18015KT CAVOK

Weather observations and forecasts of more than 4000 airports (METAR and TAF reports).

The available stations are represented by yellow and red dots on the map.

Hover mouse over dot to see the name of the station.

Then click to see weather observations and forecasts.

To change the map : click on the green buttons with a black cross to zoom in, on the green button with a dash to zoom out, or on the green arrows for adjacent maps.


METAR-TAF: